Time;durP1;ratioP1;P1;durP2;ratioP2;P2;SDS_P1;SDS_P2;PMS_P1;PMS_P2;Temp;Humidity;BMP_temperature;BMP_pressure;BME280_temperature;BME280_humidity;BME280_pressure;Samples;Min_cycle;Max_cycle;Signal;HPM_P1;HPM_P2
2021/07/23 00:00:18;;;;;;;6.70;5.03;;;17.10;1.00;;;;;;5042078;28;20328;-50
2021/07/23 00:02:44;;;;;;;5.70;4.20;;;17.10;1.00;;;;;;5036317;28;20236;-50
2021/07/23 00:05:11;;;;;;;8.50;4.63;;;17.20;1.00;;;;;;5038668;28;20286;-50
2021/07/23 00:07:38;;;;;;;7.03;4.57;;;17.40;1.00;;;;;;5043585;28;20207;-50
2021/07/23 00:10:05;;;;;;;8.30;5.20;;;17.50;1.00;;;;;;5039085;28;20217;-50
2021/07/23 00:12:32;;;;;;;10.57;5.33;;;17.30;1.00;;;;;;5037312;28;21143;-50
2021/07/23 00:14:59;;;;;;;9.17;5.13;;;17.10;1.00;;;;;;5039022;28;20667;-50
2021/07/23 00:17:25;;;;;;;7.50;4.67;;;17.10;1.00;;;;;;5038222;28;20200;-50
2021/07/23 00:19:52;;;;;;;7.00;4.73;;;17.20;1.00;;;;;;5042377;28;20425;-50
2021/07/23 00:22:19;;;;;;;8.10;4.70;;;17.20;1.00;;;;;;5037016;28;20616;-49
2021/07/23 00:24:46;;;;;;;7.97;4.57;;;17.20;1.00;;;;;;5037314;28;20300;-50
2021/07/23 00:27:15;;;;;;;8.07;4.93;;;17.00;1.00;;;;;;5028132;28;20751;-50
2021/07/23 00:29:42;;;;;;;6.13;4.33;;;17.00;1.00;;;;;;5036686;28;20202;-49
2021/07/23 00:32:09;;;;;;;8.10;4.53;;;17.00;1.00;;;;;;5031345;28;20675;-50
2021/07/23 00:34:36;;;;;;;6.37;4.37;;;17.20;1.00;;;;;;5036339;28;20546;-50
2021/07/23 00:37:03;;;;;;;6.70;4.20;;;17.20;1.00;;;;;;5038135;28;20317;-50
2021/07/23 00:39:29;;;;;;;6.53;4.43;;;17.20;1.00;;;;;;5037470;28;20294;-50
2021/07/23 00:41:56;;;;;;;7.23;4.80;;;17.20;1.00;;;;;;5038655;28;20663;-50
2021/07/23 00:44:23;;;;;;;7.10;4.93;;;17.10;1.00;;;;;;5036707;28;20204;-50
2021/07/23 00:46:50;;;;;;;7.83;5.10;;;17.20;1.00;;;;;;5035170;28;20204;-49
2021/07/23 00:49:17;;;;;;;7.63;4.83;;;17.20;1.00;;;;;;5033952;28;20629;-50
2021/07/23 00:51:44;;;;;;;6.37;4.70;;;17.00;1.00;;;;;;5037140;28;20668;-50
2021/07/23 00:54:12;;;;;;;9.67;5.03;;;17.00;1.00;;;;;;5038034;28;20305;-50
2021/07/23 00:56:38;;;;;;;7.63;5.30;;;17.10;1.00;;;;;;5034863;28;20237;-50
2021/07/23 00:59:05;;;;;;;9.53;4.73;;;17.20;1.00;;;;;;5033348;28;20410;-50
2021/07/23 01:01:33;;;;;;;6.60;4.43;;;17.20;1.00;;;;;;5042593;28;21168;-50
2021/07/23 01:04:02;;;;;;;7.37;4.83;;;17.20;1.00;;;;;;5035888;28;20226;-50
2021/07/23 01:06:30;;;;;;;8.63;5.00;;;17.10;1.00;;;;;;5039612;28;20353;-50
2021/07/23 01:08:57;;;;;;;6.67;4.47;;;17.00;1.00;;;;;;5039819;28;20235;-50
2021/07/23 01:11:25;;;;;;;6.43;4.57;;;17.00;1.00;;;;;;5039318;28;20230;-50
2021/07/23 01:13:52;;;;;;;6.30;4.60;;;16.90;1.00;;;;;;5038319;28;20326;-50
2021/07/23 01:16:20;;;;;;;7.10;4.47;;;17.00;1.00;;;;;;5036692;28;21542;-50
2021/07/23 01:18:47;;;;;;;7.27;4.60;;;17.20;1.00;;;;;;5029933;28;20212;-50
2021/07/23 01:21:16;;;;;;;7.27;4.37;;;17.20;1.00;;;;;;5035997;28;20228;-50
2021/07/23 01:23:43;;;;;;;6.73;4.37;;;17.10;1.00;;;;;;5036858;28;20750;-50
2021/07/23 01:26:10;;;;;;;5.03;3.67;;;17.00;1.00;;;;;;5034333;28;20291;-50
2021/07/23 01:28:38;;;;;;;6.10;4.37;;;16.80;1.00;;;;;;5038943;28;20290;-50
2021/07/23 01:31:05;;;;;;;6.17;4.40;;;16.90;1.00;;;;;;5037750;28;20326;-50
2021/07/23 01:33:32;;;;;;;7.20;5.03;;;16.90;1.00;;;;;;5037518;28;20218;-50
2021/07/23 01:35:59;;;;;;;7.53;4.87;;;17.00;1.00;;;;;;5037725;28;20295;-50
2021/07/23 01:38:28;;;;;;;5.93;4.63;;;16.90;1.00;;;;;;5037198;28;20204;-50
2021/07/23 01:40:55;;;;;;;8.20;4.83;;;16.90;1.00;;;;;;5037086;28;20220;-50
2021/07/23 01:43:24;;;;;;;5.87;4.07;;;16.70;1.00;;;;;;5036148;28;20397;-50
2021/07/23 01:45:53;;;;;;;6.83;4.73;;;16.70;1.00;;;;;;5036269;28;20290;-50
2021/07/23 01:48:20;;;;;;;6.80;4.70;;;16.80;1.00;;;;;;5041506;28;20323;-50
2021/07/23 01:50:47;;;;;;;6.07;4.67;;;16.70;1.00;;;;;;5037187;28;20257;-50
2021/07/23 01:53:15;;;;;;;6.40;4.37;;;16.60;1.00;;;;;;5036099;28;20335;-50
2021/07/23 01:55:43;;;;;;;6.37;4.57;;;16.70;1.00;;;;;;5038072;28;20343;-49
2021/07/23 01:58:11;;;;;;;6.67;4.30;;;16.70;1.00;;;;;;5042223;28;20203;-50
2021/07/23 02:00:38;;;;;;;6.23;4.67;;;16.80;1.00;;;;;;5036432;28;20692;-49
2021/07/23 02:03:05;;;;;;;5.73;4.70;;;16.80;1.00;;;;;;5034875;28;20222;-50
2021/07/23 02:05:32;;;;;;;5.73;4.40;;;16.70;1.00;;;;;;5039108;28;20277;-50
2021/07/23 02:08:00;;;;;;;6.73;4.40;;;16.70;1.00;;;;;;5038894;28;20251;-50
2021/07/23 02:10:27;;;;;;;7.33;4.53;;;16.70;1.00;;;;;;5038066;28;20255;-50
2021/07/23 02:12:55;;;;;;;7.10;4.70;;;16.60;1.00;;;;;;5038109;28;20324;-50
2021/07/23 02:15:22;;;;;;;8.70;5.20;;;16.60;1.00;;;;;;5039475;28;20653;-50
2021/07/23 02:17:49;;;;;;;6.13;4.53;;;16.60;1.00;;;;;;5039295;28;20290;-50
2021/07/23 02:20:16;;;;;;;5.97;4.50;;;16.40;1.00;;;;;;5040903;28;20231;-50
2021/07/23 02:22:43;;;;;;;6.73;3.97;;;16.30;1.00;;;;;;5034315;28;20294;-50
2021/07/23 02:25:10;;;;;;;5.83;3.90;;;16.20;1.00;;;;;;5036855;28;20267;-50
2021/07/23 02:27:36;;;;;;;5.80;4.03;;;16.20;1.00;;;;;;5034818;28;20299;-50
2021/07/23 02:30:04;;;;;;;5.50;4.80;;;16.30;1.00;;;;;;5038062;28;20230;-50
2021/07/23 02:32:31;;;;;;;6.77;4.27;;;16.20;1.00;;;;;;5035933;28;20318;-50
2021/07/23 02:34:57;;;;;;;6.50;4.57;;;16.20;1.00;;;;;;5036865;28;20597;-50
2021/07/23 02:37:24;;;;;;;6.13;4.43;;;16.20;1.00;;;;;;5041392;28;20287;-50
2021/07/23 02:39:51;;;;;;;5.90;4.17;;;16.30;1.00;;;;;;5040663;28;20308;-50
2021/07/23 02:42:17;;;;;;;6.33;4.83;;;16.20;1.00;;;;;;5042228;28;20978;-50
2021/07/23 02:44:44;;;;;;;6.47;4.33;;;16.20;1.00;;;;;;5040996;28;20221;-50
2021/07/23 02:47:11;;;;;;;5.50;4.23;;;16.40;1.00;;;;;;5040904;28;20204;-50
2021/07/23 02:49:38;;;;;;;6.23;4.43;;;16.40;1.00;;;;;;5041607;28;20219;-50
2021/07/23 02:52:05;;;;;;;7.03;4.30;;;16.30;1.00;;;;;;5042802;28;20243;-49
2021/07/23 02:54:32;;;;;;;5.40;4.30;;;16.50;1.00;;;;;;5038599;28;20855;-51
2021/07/23 02:56:58;;;;;;;7.00;4.30;;;16.40;1.00;;;;;;5038955;28;20233;-50
2021/07/23 02:59:25;;;;;;;6.03;4.50;;;16.30;1.00;;;;;;5043119;28;20289;-50
2021/07/23 03:01:52;;;;;;;5.77;4.40;;;16.40;1.00;;;;;;5042048;28;20216;-50
2021/07/23 03:04:19;;;;;;;6.30;5.20;;;16.40;1.00;;;;;;5036664;28;20290;-50
2021/07/23 03:06:45;;;;;;;6.03;4.27;;;16.40;1.00;;;;;;5042553;28;20215;-50
2021/07/23 03:09:12;;;;;;;6.30;4.97;;;16.20;1.00;;;;;;5038791;28;20283;-50
2021/07/23 03:11:39;;;;;;;5.43;4.33;;;16.30;1.00;;;;;;5045582;28;20215;-50
2021/07/23 03:14:06;;;;;;;5.83;4.83;;;16.30;1.00;;;;;;5038320;28;20254;-50
2021/07/23 03:16:33;;;;;;;8.83;4.67;;;16.20;1.00;;;;;;5040069;28;20246;-50
2021/07/23 03:18:59;;;;;;;6.43;4.33;;;16.30;1.00;;;;;;5042272;28;20208;-50
2021/07/23 03:21:26;;;;;;;6.97;5.17;;;16.30;1.00;;;;;;5042033;28;20211;-50
2021/07/23 03:23:53;;;;;;;7.60;5.00;;;16.20;1.00;;;;;;5041773;28;20298;-50
2021/07/23 03:26:20;;;;;;;8.00;5.50;;;16.10;1.00;;;;;;5037653;28;20291;-50
2021/07/23 03:28:47;;;;;;;7.73;5.17;;;15.80;88.40;;;;;;5041439;28;20248;-50
2021/07/23 03:31:14;;;;;;;7.37;5.23;;;15.90;99.90;;;;;;5037300;28;20317;-50
2021/07/23 03:33:41;;;;;;;9.17;5.10;;;15.70;99.90;;;;;;5041971;28;20364;-50
2021/07/23 03:36:08;;;;;;;6.20;4.63;;;15.80;99.90;;;;;;5040984;28;20251;-50
2021/07/23 03:38:35;;;;;;;6.70;5.17;;;15.90;44.20;;;;;;5040317;28;20679;-50
2021/07/23 03:41:02;;;;;;;8.93;5.67;;;15.70;89.70;;;;;;5039592;28;20282;-50
2021/07/23 03:43:29;;;;;;;8.23;5.23;;;15.70;99.90;;;;;;5035068;28;20698;-49
2021/07/23 03:45:56;;;;;;;7.07;4.90;;;15.80;93.30;;;;;;5035349;28;20282;-50
2021/07/23 03:48:23;;;;;;;7.30;4.63;;;15.90;30.90;;;;;;5038616;28;20194;-50
2021/07/23 03:50:49;;;;;;;8.33;5.13;;;16.00;3.90;;;;;;5038673;28;20270;-50
2021/07/23 03:53:16;;;;;;;9.70;5.13;;;16.10;1.00;;;;;;5039636;28;20747;-50
2021/07/23 03:55:43;;;;;;;8.70;5.47;;;15.90;1.00;;;;;;5040747;28;20365;-50
2021/07/23 03:58:10;;;;;;;7.27;5.67;;;15.70;99.90;;;;;;5041340;28;20287;-50
2021/07/23 04:00:36;;;;;;;6.97;4.93;;;15.90;90.50;;;;;;5039679;28;20232;-50
2021/07/23 04:03:03;;;;;;;11.87;4.93;;;16.00;1.00;;;;;;5038265;28;20401;-50
2021/07/23 04:05:31;;;;;;;6.67;5.20;;;15.90;1.00;;;;;;5039205;28;20212;-50
2021/07/23 04:07:57;;;;;;;7.10;4.77;;;15.80;66.50;;;;;;5040396;28;20494;-50
2021/07/23 04:10:27;;;;;;;8.47;4.90;;;15.70;87.20;;;;;;5040129;28;20222;-50
2021/07/23 04:12:54;;;;;;;8.50;5.50;;;15.60;99.90;;;;;;5037906;28;21001;-50
2021/07/23 04:15:21;;;;;;;7.27;5.10;;;15.80;88.50;;;;;;5040565;28;20663;-50
2021/07/23 04:17:47;;;;;;;6.13;4.20;;;15.80;22.10;;;;;;5041544;28;20236;-50
2021/07/23 04:20:14;;;;;;;7.33;4.53;;;15.80;40.60;;;;;;5043954;28;20289;-50
2021/07/23 04:22:41;;;;;;;8.63;4.50;;;15.70;99.90;;;;;;5041938;28;20928;-50
2021/07/23 04:25:09;;;;;;;6.40;5.30;;;15.60;99.90;;;;;;5038525;28;20300;-50
2021/07/23 04:27:36;;;;;;;6.00;5.13;;;15.60;90.30;;;;;;5037430;28;20294;-50
2021/07/23 04:30:04;;;;;;;7.50;5.70;;;15.50;99.90;;;;;;5037618;28;20310;-50
2021/07/23 04:32:31;;;;;;;8.53;5.47;;;15.40;99.90;;;;;;5039793;28;20656;-50
2021/07/23 04:34:58;;;;;;;8.43;5.17;;;15.40;99.90;;;;;;5035814;28;20285;-50
2021/07/23 04:37:25;;;;;;;7.10;5.00;;;15.40;99.90;;;;;;5036683;28;20255;-50
2021/07/23 04:39:51;;;;;;;9.60;5.53;;;15.50;99.90;;;;;;5039322;28;20238;-50
2021/07/23 04:42:18;;;;;;;8.97;5.73;;;15.50;99.90;;;;;;5040947;28;20372;-50
2021/07/23 04:44:45;;;;;;;7.60;5.27;;;15.50;99.90;;;;;;5035084;28;20289;-50
2021/07/23 04:47:11;;;;;;;7.80;4.97;;;15.40;99.90;;;;;;5034377;28;20302;-50
2021/07/23 04:49:38;;;;;;;7.73;5.37;;;15.30;99.90;;;;;;5037404;28;20198;-50
2021/07/23 04:52:05;;;;;;;7.13;5.07;;;15.40;99.90;;;;;;5038566;28;21029;-50
2021/07/23 04:54:32;;;;;;;6.97;4.47;;;15.30;99.90;;;;;;5044032;28;20223;-50
2021/07/23 04:56:59;;;;;;;7.80;5.40;;;15.30;99.90;;;;;;5046144;28;20507;-50
2021/07/23 04:59:25;;;;;;;6.43;5.03;;;15.40;99.90;;;;;;5044480;28;20227;-50
2021/07/23 05:01:52;;;;;;;7.73;4.83;;;15.40;99.90;;;;;;5042194;28;20303;-50
2021/07/23 05:04:20;;;;;;;8.30;5.63;;;15.40;99.90;;;;;;5038303;28;20230;-50
2021/07/23 05:06:47;;;;;;;7.83;4.87;;;15.40;99.90;;;;;;5042234;28;20213;-50
2021/07/23 05:09:13;;;;;;;5.57;4.20;;;15.50;99.90;;;;;;5033017;28;20371;-50
2021/07/23 05:11:42;;;;;;;7.30;5.30;;;15.60;99.90;;;;;;5040402;28;20299;-50
2021/07/23 05:14:08;;;;;;;5.90;4.47;;;15.80;96.20;;;;;;5035613;28;20719;-50
2021/07/23 05:16:36;;;;;;;7.50;4.73;;;15.80;39.00;;;;;;5036340;28;20216;-50
2021/07/23 05:19:05;;;;;;;6.70;5.20;;;15.90;83.10;;;;;;5031075;28;20329;-50
2021/07/23 05:21:34;;;;;;;10.13;5.20;;;15.80;24.70;;;;;;5041283;28;20229;-50
2021/07/23 05:24:04;;;;;;;8.53;5.17;;;15.80;1.00;;;;;;5034995;28;20545;-49
2021/07/23 05:26:35;;;;;;;7.00;4.87;;;15.70;63.30;;;;;;5037411;28;20234;-50
2021/07/23 05:29:06;;;;;;;6.20;4.67;;;15.70;63.70;;;;;;5038206;28;20249;-50
2021/07/23 05:31:40;;;;;;;13.03;5.37;;;15.70;83.90;;;;;;5039076;28;20278;-50
2021/07/23 05:34:07;;;;;;;8.60;5.50;;;15.70;86.20;;;;;;5037367;28;20225;-50
2021/07/23 05:36:34;;;;;;;9.03;4.97;;;16.00;1.00;;;;;;5037899;28;20288;-50
2021/07/23 05:39:01;;;;;;;7.40;4.80;;;16.20;1.00;;;;;;5034584;28;20277;-50
2021/07/23 05:41:28;;;;;;;7.83;4.67;;;16.50;1.00;;;;;;5038434;28;20230;-49
2021/07/23 05:43:56;;;;;;;8.60;5.67;;;16.50;1.00;;;;;;5037358;28;20203;-50
2021/07/23 05:46:23;;;;;;;7.03;4.97;;;16.40;1.00;;;;;;5035413;28;20293;-50
2021/07/23 05:48:49;;;;;;;9.77;5.60;;;16.50;1.00;;;;;;5037557;28;20207;-49
2021/07/23 05:51:16;;;;;;;9.37;4.93;;;16.50;1.00;;;;;;5036638;28;20525;-50
2021/07/23 05:53:43;;;;;;;8.33;5.27;;;16.60;1.00;;;;;;5040139;28;20306;-49
2021/07/23 05:56:10;;;;;;;9.20;4.73;;;16.80;1.00;;;;;;5037630;28;20243;-49
2021/07/23 05:58:37;;;;;;;10.53;5.03;;;16.80;1.00;;;;;;5037054;28;20244;-50
2021/07/23 06:01:06;;;;;;;7.47;5.93;;;16.90;1.00;;;;;;5028119;28;20659;-50
2021/07/23 06:03:34;;;;;;;9.03;5.13;;;16.80;1.00;;;;;;5030869;28;20248;-50
2021/07/23 06:06:02;;;;;;;6.20;4.70;;;16.80;1.00;;;;;;5035925;28;20205;-50
2021/07/23 06:08:29;;;;;;;11.70;5.10;;;16.70;1.00;;;;;;5038648;28;20206;-50
2021/07/23 06:10:56;;;;;;;6.17;4.70;;;17.00;1.00;;;;;;5038562;28;20244;-50
2021/07/23 06:13:23;;;;;;;7.40;5.23;;;17.10;1.00;;;;;;5035805;28;20206;-50
2021/07/23 06:15:50;;;;;;;5.73;4.50;;;17.00;1.00;;;;;;5034768;28;20243;-50
2021/07/23 06:18:17;;;;;;;7.27;4.73;;;17.00;1.00;;;;;;5032767;28;20256;-49
2021/07/23 06:20:44;;;;;;;5.97;4.10;;;16.80;1.00;;;;;;5033766;28;20204;-50
2021/07/23 06:23:10;;;;;;;11.37;5.13;;;17.00;1.00;;;;;;5034091;28;20393;-50
2021/07/23 06:25:37;;;;;;;7.33;4.70;;;17.20;1.00;;;;;;5028876;28;20307;-50
2021/07/23 06:28:05;;;;;;;5.37;4.10;;;17.30;1.00;;;;;;5035259;28;20303;-50
2021/07/23 06:30:32;;;;;;;7.50;4.30;;;17.40;99.90;;;;;;5037229;28;20318;-50
2021/07/23 06:32:59;;;;;;;6.83;4.97;;;17.50;1.00;;;;;;5031936;28;20335;-50
2021/07/23 06:35:29;;;;;;;8.00;4.17;;;17.40;99.90;;;;;;5038594;28;20579;-50
2021/07/23 06:37:57;;;;;;;7.43;4.23;;;17.50;99.90;;;;;;5036153;28;20239;-50
2021/07/23 06:40:24;;;;;;;6.30;4.00;;;17.50;1.00;;;;;;5037489;28;20279;-50
2021/07/23 06:42:51;;;;;;;7.97;4.97;;;17.60;1.00;;;;;;5038601;28;20235;-50
2021/07/23 06:45:18;;;;;;;6.80;4.77;;;17.40;1.00;;;;;;5039266;28;20204;-49
2021/07/23 06:47:45;;;;;;;6.57;4.60;;;17.50;99.90;;;;;;5031636;28;20256;-50
2021/07/23 06:50:12;;;;;;;4.80;3.93;;;17.80;1.00;;;;;;5039094;28;20249;-50
2021/07/23 06:52:39;;;;;;;6.00;4.30;;;18.10;99.90;;;;;;5038572;28;20203;-51
2021/07/23 06:55:06;;;;;;;5.63;4.33;;;18.20;1.00;;;;;;5034060;28;20324;-50
2021/07/23 06:57:34;;;;;;;9.40;4.73;;;18.20;1.00;;;;;;5041685;28;20295;-50
2021/07/23 07:00:01;;;;;;;7.03;4.23;;;18.20;1.00;;;;;;5037469;28;20293;-50
2021/07/23 07:02:28;;;;;;;6.90;4.40;;;18.20;99.90;;;;;;5035316;28;20254;-50
2021/07/23 07:04:55;;;;;;;10.67;4.00;;;18.20;99.90;;;;;;5035160;28;20220;-50
2021/07/23 07:07:22;;;;;;;5.47;3.80;;;18.50;99.90;;;;;;5028382;28;20656;-50
2021/07/23 07:09:49;;;;;;;6.37;4.10;;;18.80;1.00;;;;;;5029660;28;20230;-50
2021/07/23 07:12:16;;;;;;;5.03;3.97;;;19.00;99.90;;;;;;5028313;28;20705;-50
2021/07/23 07:14:43;;;;;;;6.47;4.40;;;19.10;99.90;;;;;;5032136;28;20212;-51
2021/07/23 07:17:10;;;;;;;6.33;4.10;;;19.30;1.00;;;;;;5036857;28;20192;-50
2021/07/23 07:19:37;;;;;;;4.07;3.50;;;19.30;1.00;;;;;;5037864;28;20205;-50
2021/07/23 07:22:04;;;;;;;5.67;4.57;;;19.40;1.00;;;;;;5038021;28;20207;-50
2021/07/23 07:24:31;;;;;;;5.43;3.93;;;19.60;1.00;;;;;;5037979;28;20235;-50
2021/07/23 07:26:59;;;;;;;11.53;4.30;;;19.80;99.90;;;;;;5039612;28;20207;-50
2021/07/23 07:29:26;;;;;;;9.03;4.73;;;19.80;1.00;;;;;;5040213;28;20270;-50
2021/07/23 07:31:53;;;;;;;5.17;4.03;;;19.60;1.00;;;;;;5042014;28;20228;-50
2021/07/23 07:34:20;;;;;;;7.00;4.30;;;19.50;1.00;;;;;;5034513;28;20212;-51
2021/07/23 07:36:46;;;;;;;5.17;3.70;;;19.80;1.00;;;;;;5034866;28;20931;-50
2021/07/23 07:39:13;;;;;;;5.53;3.70;;;20.00;1.00;;;;;;5035629;28;20291;-50
2021/07/23 07:41:40;;;;;;;6.10;4.17;;;20.20;1.00;;;;;;5040232;28;20299;-50
2021/07/23 07:44:09;;;;;;;5.30;3.93;;;19.60;1.00;;;;;;5034890;28;20338;-50
2021/07/23 07:46:36;;;;;;;6.73;3.80;;;20.00;1.00;;;;;;5032407;28;20224;-50
2021/07/23 07:49:03;;;;;;;5.90;3.90;;;19.90;1.00;;;;;;5037689;28;20196;-50
2021/07/23 07:51:29;;;;;;;7.00;4.10;;;20.30;1.00;;;;;;5033699;28;20290;-50
2021/07/23 07:53:56;;;;;;;7.10;4.03;;;20.40;99.90;;;;;;5037158;28;20712;-50
2021/07/23 07:56:23;;;;;;;6.07;4.00;;;20.10;99.90;;;;;;5033784;28;20234;-50
2021/07/23 07:58:50;;;;;;;6.77;3.87;;;20.20;1.00;;;;;;5036749;28;20727;-50
2021/07/23 08:01:17;;;;;;;3.77;3.13;;;20.70;1.00;;;;;;5037992;28;20331;-50
2021/07/23 08:03:44;;;;;;;5.60;4.10;;;20.20;1.00;;;;;;5035144;28;20675;-50
2021/07/23 08:06:20;;;;;;;4.77;3.80;;;20.90;99.90;;;;;;5036209;28;20204;-50
2021/07/23 08:08:48;;;;;;;5.03;4.33;;;20.80;99.90;;;;;;5037429;28;20302;-50
2021/07/23 08:11:15;;;;;;;6.60;4.23;;;20.50;1.00;;;;;;5036987;28;20205;-50
2021/07/23 08:13:41;;;;;;;5.20;3.77;;;20.40;1.00;;;;;;5030158;28;20675;-49
2021/07/23 08:16:10;;;;;;;5.83;4.03;;;20.50;1.00;;;;;;5033895;28;20256;-50
2021/07/23 08:18:37;;;;;;;4.33;3.50;;;20.80;1.00;;;;;;5042860;28;20203;-50
2021/07/23 08:21:05;;;;;;;4.23;3.20;;;21.30;99.90;;;;;;5039254;28;20334;-50
2021/07/23 08:23:33;;;;;;;6.47;3.97;;;21.60;1.00;;;;;;5037018;28;21454;-50
2021/07/23 08:26:00;;;;;;;4.53;3.40;;;21.50;1.00;;;;;;5037530;28;20286;-50
2021/07/23 08:28:27;;;;;;;5.73;3.43;;;21.10;99.90;;;;;;5036690;28;20257;-50
2021/07/23 08:30:54;;;;;;;7.40;3.70;;;21.60;1.00;;;;;;5039898;28;20286;-50
2021/07/23 08:33:22;;;;;;;7.43;3.60;;;21.90;98.20;;;;;;5034778;28;20211;-50
2021/07/23 08:35:50;;;;;;;4.40;3.40;;;22.20;1.00;;;;;;5041103;28;20266;-49
2021/07/23 08:38:17;;;;;;;4.07;3.67;;;22.40;99.90;;;;;;5039319;28;20207;-49
2021/07/23 08:40:44;;;;;;;7.57;4.10;;;22.30;99.90;;;;;;5039497;28;20200;-49
2021/07/23 08:43:11;;;;;;;7.63;3.80;;;22.00;1.00;;;;;;5038793;28;20628;-49
2021/07/23 08:45:39;;;;;;;4.53;3.80;;;22.20;1.00;;;;;;5040629;28;20283;-49
2021/07/23 08:48:06;;;;;;;7.53;4.17;;;22.30;99.90;;;;;;5035010;28;20613;-50
2021/07/23 08:50:34;;;;;;;6.70;3.50;;;22.20;99.90;;;;;;5040632;28;20202;-49
2021/07/23 08:53:09;;;;;;;6.07;3.67;;;21.80;99.90;;;;;;5033807;28;20916;-49
2021/07/23 08:55:36;;;;;;;4.40;3.50;;;22.30;1.00;;;;;;5038714;28;20273;-49
2021/07/23 08:58:08;;;;;;;5.30;4.23;;;22.50;5.90;;;;;;5035485;28;20651;-50
2021/07/23 09:00:35;;;;;;;4.70;3.63;;;22.60;1.00;;;;;;5039558;28;20239;-49
2021/07/23 09:03:08;;;;;;;4.60;3.57;;;22.50;99.90;;;;;;5035888;28;20747;-49
2021/07/23 09:05:41;;;;;;;5.37;3.70;;;22.10;99.90;;;;;;5034080;28;20222;-49
2021/07/23 09:08:07;;;;;;;5.33;3.60;;;22.30;99.90;;;;;;5039522;28;20204;-49
2021/07/23 09:10:34;;;;;;;6.87;3.73;;;22.40;1.00;;;;;;5034015;28;20227;-49
2021/07/23 09:13:05;;;;;;;5.03;3.40;;;22.60;7.50;;;;;;5036714;28;20209;-49
2021/07/23 09:15:37;;;;;;;4.00;3.10;;;23.00;1.00;;;;;;5040541;28;20539;-52
2021/07/23 09:18:23;;;;;;;5.30;3.67;;;22.60;1.00;;;;;;5031836;28;20200;-49
2021/07/23 09:21:02;;;;;;;5.23;3.80;;;22.10;51.70;;;;;;5034490;28;20329;-50
2021/07/23 09:23:36;;;;;;;5.30;3.70;;;22.00;99.90;;;;;;5028865;28;20206;-49
2021/07/23 09:26:16;;;;;;;5.13;3.73;;;21.60;99.90;;;;;;5034514;28;20243;-49
2021/07/23 09:28:47;;;;;;;5.40;3.80;;;21.30;1.00;;;;;;5039467;28;20295;-49
2021/07/23 09:31:25;;;;;;;5.37;3.63;;;21.10;1.00;;;;;;5037266;28;20318;-49
2021/07/23 09:33:58;;;;;;;5.87;3.80;;;21.70;1.00;;;;;;5027723;28;20224;-49
2021/07/23 09:36:26;;;;;;;5.17;2.93;;;22.30;1.00;;;;;;5031607;28;21620;-49
2021/07/23 09:39:06;;;;;;;4.87;4.17;;;22.40;1.00;;;;;;5037996;28;20284;-50
2021/07/23 09:41:34;;;;;;;4.70;3.20;;;22.40;1.00;;;;;;5033604;28;20267;-49
2021/07/23 09:44:11;;;;;;;5.43;4.23;;;22.50;1.00;;;;;;5037692;28;20200;-49
2021/07/23 09:46:42;;;;;;;4.40;3.30;;;22.40;1.00;;;;;;5035769;28;20718;-49
2021/07/23 09:49:21;;;;;;;5.13;3.63;;;22.40;99.90;;;;;;5031828;28;20290;-49
2021/07/23 09:51:52;;;;;;;5.03;3.83;;;22.00;1.00;;;;;;5036516;28;20664;-50
2021/07/23 09:54:19;;;;;;;4.50;3.63;;;22.30;99.90;;;;;;5032003;28;20292;-49
2021/07/23 09:56:48;;;;;;;5.83;3.67;;;22.60;1.00;;;;;;5037842;28;20476;-49
2021/07/23 10:00:06;;;;;;;6.17;3.90;;;22.80;99.90;;;;;;5031043;28;20234;-49
2021/07/23 10:02:36;;;;;;;5.77;3.53;;;22.70;1.00;;;;;;5027369;28;20600;-49
2021/07/23 10:05:06;;;;;;;6.97;4.67;;;23.20;1.00;;;;;;5031763;28;20207;-49
2021/07/23 10:07:59;;;;;;;5.37;3.70;;;23.40;1.00;;;;;;5037468;28;20680;-51
2021/07/23 10:10:26;;;;;;;5.90;4.57;;;23.40;1.00;;;;;;5036657;28;20231;-49
2021/07/23 10:12:54;;;;;;;5.67;4.43;;;23.10;1.00;;;;;;5034064;28;20231;-49
2021/07/23 10:15:21;;;;;;;5.30;4.10;;;23.40;1.00;;;;;;5038570;28;20222;-49
2021/07/23 10:17:49;;;;;;;5.40;4.13;;;23.20;1.00;;;;;;5032323;28;20228;-49
2021/07/23 10:20:20;;;;;;;8.03;4.60;;;23.00;1.00;;;;;;5031272;28;20238;-49
2021/07/23 10:22:54;;;;;;;6.27;5.00;;;22.90;16.90;;;;;;5030000;28;20223;-49
2021/07/23 10:25:31;;;;;;;7.30;5.40;;;22.40;99.90;;;;;;5031277;28;20214;-49
2021/07/23 10:27:58;;;;;;;5.97;4.20;;;22.30;99.90;;;;;;5040723;28;20203;-49
2021/07/23 10:30:35;;;;;;;5.87;4.60;;;22.50;99.90;;;;;;5039107;28;20239;-52
2021/07/23 10:33:04;;;;;;;6.07;4.73;;;21.90;1.00;;;;;;5041038;28;21107;-49
2021/07/23 10:35:33;;;;;;;5.43;4.47;;;22.00;1.00;;;;;;5035740;28;20310;-51
2021/07/23 10:38:02;;;;;;;5.87;4.30;;;22.60;1.00;;;;;;5039509;28;20310;-49
2021/07/23 10:40:37;;;;;;;6.77;4.70;;;22.80;1.00;;;;;;5039368;28;20681;-51
2021/07/23 10:43:31;;;;;;;6.50;4.37;;;23.10;99.90;;;;;;5041874;28;20305;-49
2021/07/23 10:45:58;;;;;;;8.07;4.33;;;23.30;1.00;;;;;;5028297;28;20232;-49
2021/07/23 10:48:45;;;;;;;7.30;4.77;;;22.90;10.00;;;;;;5039597;28;20200;-49
2021/07/23 10:51:44;;;;;;;6.57;4.90;;;22.80;99.90;;;;;;5039637;28;20264;-52
2021/07/23 10:54:10;;;;;;;6.27;4.00;;;22.50;99.90;;;;;;5039303;28;20239;-49
2021/07/23 10:57:06;;;;;;;7.53;4.70;;;22.70;99.90;;;;;;5038607;28;20653;-52
2021/07/23 10:59:41;;;;;;;8.53;4.10;;;22.90;26.30;;;;;;5043579;28;20292;-49
2021/07/23 11:02:31;;;;;;;5.33;4.20;;;22.60;99.90;;;;;;5042014;28;20208;-49
2021/07/23 11:05:06;;;;;;;5.63;4.43;;;22.70;99.90;;;;;;5040658;28;20544;-49
2021/07/23 11:07:33;;;;;;;6.07;4.50;;;22.20;1.00;;;;;;5039902;28;20293;-49
2021/07/23 11:10:00;;;;;;;4.63;4.00;;;22.50;1.00;;;;;;5041261;28;20651;-49
2021/07/23 11:12:31;;;;;;;6.30;4.47;;;22.60;1.00;;;;;;5045214;28;20196;-50
2021/07/23 11:15:05;;;;;;;5.30;4.40;;;22.90;1.00;;;;;;5042808;28;20205;-50
2021/07/23 11:17:32;;;;;;;6.37;4.50;;;22.70;32.00;;;;;;5043192;28;20231;-51
2021/07/23 11:20:02;;;;;;;5.83;3.83;;;22.30;1.00;;;;;;5044239;28;20205;-51
2021/07/23 11:22:32;;;;;;;5.90;4.17;;;22.60;1.00;;;;;;5042997;28;20239;-50
2021/07/23 11:25:00;;;;;;;7.33;4.43;;;22.60;99.90;;;;;;5044290;28;20656;-50
2021/07/23 11:27:30;;;;;;;6.63;4.10;;;22.10;1.00;;;;;;5035491;28;20336;-50
2021/07/23 11:29:58;;;;;;;8.23;5.10;;;22.40;1.00;;;;;;5039323;28;20747;-50
2021/07/23 11:32:29;;;;;;;7.33;5.10;;;23.00;1.00;;;;;;5041351;28;20252;-50
2021/07/23 11:35:08;;;;;;;6.33;4.37;;;23.20;99.90;;;;;;5039097;28;20216;-50
2021/07/23 11:37:36;;;;;;;8.47;4.60;;;23.10;99.90;;;;;;5037693;28;20303;-50
2021/07/23 11:40:09;;;;;;;6.85;4.90;;;23.80;83.90;;;;;;5033974;28;20496;-48
2021/07/23 11:42:38;;;;;;;6.07;4.30;;;23.90;1.00;;;;;;5033231;28;20205;-49
2021/07/23 11:45:09;;;;;;;6.20;4.30;;;24.70;99.90;;;;;;5031197;28;20682;-49
2021/07/23 11:47:44;;;;;;;5.40;4.07;;;25.10;99.90;;;;;;5034078;28;20255;-48
2021/07/23 11:50:15;;;;;;;6.33;4.30;;;25.90;13.20;;;;;;5031187;28;20219;-49
2021/07/23 11:52:42;;;;;;;5.23;4.00;;;24.40;1.00;;;;;;5037743;28;20288;-48
2021/07/23 11:55:12;;;;;;;6.03;3.43;;;24.80;1.00;;;;;;5035703;28;20599;-49
2021/07/23 11:57:44;;;;;;;5.67;4.10;;;26.20;24.30;;;;;;5034954;28;20253;-49
2021/07/23 12:00:14;;;;;;;6.23;4.07;;;26.40;1.00;;;;;;5035073;28;20234;-48
2021/07/23 12:02:41;;;;;;;6.77;4.23;;;25.40;99.90;;;;;;5033885;28;20373;-48
2021/07/23 12:05:08;;;;;;;5.10;3.70;;;26.50;1.00;;;;;;5034479;28;20558;-49
2021/07/23 12:07:36;;;;;;;5.33;3.90;;;25.40;1.00;;;;;;5034069;28;20223;-49
2021/07/23 12:10:05;;;;;;;5.87;3.80;;;26.10;1.00;;;;;;5032572;28;21537;-49
2021/07/23 12:12:34;;;;;;;5.37;4.43;;;27.00;1.00;;;;;;5037328;28;20223;-49
2021/07/23 12:15:06;;;;;;;4.53;3.50;;;27.20;1.00;;;;;;5035689;28;20212;-49
2021/07/23 12:17:35;;;;;;;4.80;3.60;;;27.10;1.00;;;;;;5032522;28;20330;-49
2021/07/23 12:20:07;;;;;;;7.93;4.27;;;28.20;1.00;;;;;;5034845;28;20631;-49
2021/07/23 12:22:34;;;;;;;6.73;3.97;;;28.20;99.90;;;;;;5035325;28;20658;-49
2021/07/23 12:25:21;;;;;;;3.97;3.43;;;27.60;1.00;;;;;;5031879;28;20231;-49
2021/07/23 12:28:07;;;;;;;5.00;3.43;;;26.70;1.00;;;;;;5030375;28;20339;-49
2021/07/23 12:30:35;;;;;;;5.53;4.07;;;27.50;1.00;;;;;;5031730;28;20204;-49
2021/07/23 12:33:19;;;;;;;6.00;3.07;;;27.90;1.00;;;;;;5031529;28;20224;-49
2021/07/23 12:35:58;;;;;;;5.83;3.87;;;27.50;1.00;;;;;;5032332;28;20293;-48
2021/07/23 12:38:26;;;;;;;4.17;3.53;;;28.40;99.90;;;;;;5032913;28;20665;-49
2021/07/23 12:40:54;;;;;;;4.47;3.53;;;28.10;1.00;;;;;;5033971;28;20265;-49
2021/07/23 12:43:22;;;;;;;5.27;4.27;;;28.40;99.90;;;;;;5032661;28;20407;-49
2021/07/23 12:45:49;;;;;;;5.40;3.80;;;27.20;1.00;;;;;;5034737;28;20200;-48
2021/07/23 12:48:18;;;;;;;8.13;3.87;;;26.10;1.00;;;;;;5029675;28;20863;-49
2021/07/23 12:51:06;;;;;;;4.77;3.73;;;26.50;1.00;;;;;;5032076;28;20379;-49
2021/07/23 12:53:37;;;;;;;5.03;3.70;;;26.70;1.00;;;;;;5034506;28;20204;-49
2021/07/23 12:56:06;;;;;;;4.83;3.57;;;26.70;1.00;;;;;;5033549;28;20773;-49
2021/07/23 12:58:52;;;;;;;6.17;4.03;;;26.60;1.00;;;;;;5034157;28;20682;-49
2021/07/23 13:01:19;;;;;;;5.00;4.10;;;25.50;1.00;;;;;;5029777;28;20311;-49